Lazy 5 Park, Sparks, Nevada Weather observations

Data are for 10 minute period ending at time listed.
 Day   Time   Solar   Ave.   Ave.  Ave.  Vector  Max.   Baro.   Total    
  of    of     Rad.   Air    Rel.  Wind   Wind   Wind  Press.  Precip.   
Year   Day            Temp.  Hum.  Speed  Dir.   Gust                    
2026   (PST)  Kw/m2    F      %     mph   deg.    mph    mb.     in.     
-------------------------------------------------------------------------
 123   16:30   0.16   55.9    46   12.4    35    18.9   99999.0    0.00 
 123   16:40   0.10   55.9    46   11.9    28    16.4   99999.0    0.00 
 123   16:50   0.12   56.2    45   11.3    28    16.0   99999.0    0.00 
 123   17:00   0.18   57.0    45    8.8    29    12.8   99999.0    0.00 
 123   17:10   0.11   57.3    43    5.1    53     8.5   99999.0    0.00 
 123   17:20   0.11   57.9    42    6.3    88    11.7   99999.0    0.00 
 123   17:30   0.14   57.7    41    6.4    72    12.8   99999.0    0.00 
 123   17:40   0.15   57.7    42    4.3    61     9.6   99999.0    0.00 
 123   17:50   0.06   57.3    43    6.1    72    14.2   99999.0    0.00 
 123   18:00   0.05   56.2    45    7.3    54    14.2   99999.0    0.00 
 123   18:10   0.05   56.0    46    7.2    53    13.5   99999.0    0.00 
 123   18:20   0.05   55.7    48    5.7    41     9.2   99999.0    0.00 
 123   18:30   0.03   55.4    48    6.4    42    10.3   99999.0    0.00 
 123   18:40   0.01   55.4    48    5.8    42     9.6   99999.0    0.00 
 123   18:50   0.01   55.0    49    6.1    30     8.5   99999.0    0.00 
 123   19:00   0.00   54.8    49    4.2    43     6.7   99999.0    0.00 
 123   19:10   0.00   54.9    48    2.8    51     4.9   99999.0    0.00 
 123   19:20   0.00   54.4    49    3.2   198     6.0   99999.0    0.00 
 123   19:30   0.00   54.3    49    2.1   180     4.6   99999.0    0.00 
 123   19:40   0.00   54.3    49    1.3   132     5.3   99999.0    0.00 
 123   19:50   0.00   54.3    50    2.5   171     5.3   99999.0    0.00 
 123   20:00   0.00   54.0    51    5.1   170    10.6   99999.0    0.00 
 123   20:10   0.00   53.8    52    4.8   120     7.4   99999.0    0.00 
 123   20:20   0.00   53.6    52    2.8    77     6.3   99999.0    0.00 
 123   20:30   0.00   53.3    52    3.1    75     4.6   99999.0    0.00 
 123   20:40   0.00   53.0    53    2.5    53     4.6   99999.0    0.00 
 123   20:50   0.00   53.3    52    3.6    55     5.3   99999.0    0.00 
 123   21:00   0.00   53.4    52    1.8    77     3.1   99999.0    0.00 
 123   21:10   0.00   53.0    54    3.4    29     6.0   99999.0    0.00 
 123   21:20   0.00   52.2    55    2.8   212     5.3   99999.0    0.00 
 123   21:30   0.00   51.0    58    3.1   293     5.6   99999.0    0.00 
 123   21:40   0.00   50.8    61    3.7   301     5.6   99999.0    0.00 
 123   21:50   0.00   49.9    61    3.1   273     4.6   99999.0    0.00 
 123   22:00   0.00   49.3    64    2.9   322     5.6   99999.0    0.00 
 123   22:10   0.00   49.2    62    1.5   338     3.8   99999.0    0.00 
 123   22:20   0.00   48.7    61    3.2   289     4.6   99999.0    0.00 
 123   22:30   0.00   47.0    68    3.4   335     5.3   99999.0    0.00 
 123   22:40   0.00   46.3    70    3.2   334     4.2   99999.0    0.00 
 123   22:50   0.00   46.7    70    2.6     8     3.5   99999.0    0.00 
 123   23:00   0.00   48.2    65    1.6    48     3.1   99999.0    0.00 
 123   23:10   0.00   48.6    66    1.3    32     3.5   99999.0    0.00 
 123   23:20   0.00   48.9    62    2.0    69     3.8   99999.0    0.00 
 123   23:30   0.00   48.6    63    2.3    86     3.1   99999.0    0.00 
 123   23:40   0.00   48.1    66    1.1    56     3.1   99999.0    0.00 
 123   23:50   0.00   48.1    65    0.1    84     1.7   99999.0    0.00 
 124    0:00   0.00   47.7    65    1.7   195     3.8   99999.0    0.00 
 124    0:10   0.00   46.2    71    3.0   302     5.6   99999.0    0.00 
 124    0:20   0.00   46.8    70    1.4   326     3.8   99999.0    0.00 
 124    0:30   0.00   46.6    72    1.1   312     2.8   99999.0    0.00 
 124    0:40   0.00   45.6    71    2.4   304     4.2   99999.0    0.00 
 124    0:50   0.00   45.5    72    2.1   301     3.8   99999.0    0.00 
 124    1:00   0.00   46.8    69    1.4     6     3.8   99999.0    0.00 
 124    1:10   0.00   47.8    66    2.2   277     3.5   99999.0    0.00 
 124    1:20   0.00   48.0    66    1.6   218     5.6   99999.0    0.00 
 124    1:30   0.00   48.3    65    1.0    98     4.9   99999.0    0.00 
 124    1:40   0.00   48.3    65    2.1   184     3.8   99999.0    0.00 
 124    1:50   0.00   47.9    68    3.2   249     4.9   99999.0    0.00 
 124    2:00   0.00   48.2    66    2.0   229     3.1   99999.0    0.00 
 124    2:10   0.00   48.5    67    2.3   186     5.3   99999.0    0.00 
 124    2:20   0.00   48.4    68    1.5   236     4.2   99999.0    0.00 
 124    2:30   0.00   48.4    68    1.3   170     3.1   99999.0    0.00 
 124    2:40   0.00   48.4    67    3.1   194     4.9   99999.0    0.00 
 124    2:50   0.00   48.3    67    0.6   196     3.5   99999.0    0.00 
 124    3:00   0.00   47.9    72    4.1    14     6.7   99999.0    0.00 
 124    3:10   0.00   48.5    70    2.9    14     6.0   99999.0    0.00 
 124    3:20   0.00   48.3    70    0.1   322     1.0   99999.0    0.00 
 124    3:30   0.00   48.2    67    0.7   311     2.8   99999.0    0.00 
 124    3:40   0.00   48.4    66    1.9    86     3.5   99999.0    0.00 
 124    3:50   0.00   48.7    64    3.0    86     5.6   99999.0    0.00 
 124    4:00   0.00   49.1    63    2.5    77     4.2   99999.0    0.00 
 124    4:10   0.00   48.4    66    2.7   125     5.3   99999.0    0.00 
 124    4:20   0.00   47.5    68    1.1   190     3.8   99999.0    0.00 
 124    4:30   0.00   46.5    70    1.6   263     3.1   99999.0    0.00 
 124    4:40   0.00   46.0    72    1.2   242     3.8   99999.0    0.00 
 124    4:50   0.00   46.3    74    2.2   331     3.5   99999.0    0.00 
 124    5:00   0.00   46.6    72    0.6   241     2.4   99999.0    0.00 
 124    5:10   0.00   47.1    70    0.1   151     1.3   99999.0    0.00 
 124    5:20   0.01   47.1    74    1.4     9     4.2   99999.0    0.00 
 124    5:30   0.01   46.9    74    0.5   356     2.1   99999.0    0.00 
 124    5:40   0.01   47.0    71    3.8   216     6.3   99999.0    0.00 
 124    5:50   0.02   47.6    69    3.0   221     6.7   99999.0    0.00 
 124    6:00   0.03   48.1    69    1.0   150     4.2   99999.0    0.00 
 124    6:10   0.06   48.3    67    0.9   171     2.8   99999.0    0.00 
 124    6:20   0.09   48.8    67    1.1   208     2.8   99999.0    0.00 
 124    6:30   0.14   49.4    68    0.8    82     2.8   99999.0    0.00 
 124    6:40   0.14   50.5    63    0.9   159     2.4   99999.0    0.00 
 124    6:50   0.19   51.7    59    1.5   110     3.5   99999.0    0.00 
 124    7:00   0.18   52.1    59    0.1     8     1.3   99999.0    0.00 
 124    7:10   0.18   52.2    59    1.3    24     2.8   99999.0    0.00 
 124    7:20   0.14   52.0    60    2.5    23     4.2   99999.0    0.00 
 124    7:30   0.06   51.9    58    1.8   304     3.5   99999.0    0.00 
 124    7:40   0.05   52.0    58    2.5   247     4.2   99999.0    0.00 
 124    7:50   0.09   52.1    58    2.5   211     5.3   99999.0    0.00 
 124    8:00   0.05   52.2    58    2.8   232     5.3   99999.0    0.00 
 124    8:10   0.14   52.1    58    0.1   247     2.4   99999.0    0.00 
 124    8:20   0.23   52.1    63    3.7    43     5.3   99999.0    0.00 
 124    8:30   0.21   52.4    66    2.8    50     4.2   99999.0    0.00 
 124    8:40   0.15   52.5    62    3.2    35     5.3   99999.0    0.00 
 124    8:50   0.12   52.4    63    3.1    30     4.9   99999.0    0.00 
 124    9:00   0.19   52.7    59    0.8    85     3.1   99999.0    0.00 
 124    9:10   0.17   53.2    60    3.3   336     6.0   99999.0    0.00 
 124    9:20   0.15   53.4    60    2.0   333     4.9   99999.0    0.00 
 124    9:30   0.21   53.4    62    5.1     4     7.1   99999.0    0.00 
 124    9:40   0.34   53.9    60    4.4   358     7.1   99999.0    0.00 
 124    9:50   0.39   54.8    57    3.7    42     7.8   99999.0    0.00 
 124   10:00   0.57   56.0    54    4.6    58     7.8   99999.0    0.00 
 124   10:10   0.56   56.7    52    5.2    60     8.9   99999.0    0.00 
 124   10:20   0.42   57.4    50    3.9    70     8.1   99999.0    0.00 
 124   10:30   0.67   58.0    48    5.7    51     9.9   99999.0    0.00 
 124   10:40   0.77   58.9    46    6.8    55    12.1   99999.0    0.00 
 124   10:50   0.63   59.8    46    5.4    52    11.0   99999.0    0.00 
 124   11:00   0.49   59.3    44    7.5    45    12.4   99999.0    0.00 
 124   11:10   0.46   59.1    47    6.9    32    11.7   99999.0    0.00 
 124   11:20   0.57   59.6    49    8.1    12    13.1   99999.0    0.00 
 124   11:30   0.66   60.9    46    9.2    11    15.3   99999.0    0.00 
 124   11:40   0.11   59.7    44    9.2     6    14.9   99999.0    0.00 
 124   11:50   0.06   58.0    50   10.9   321    16.4   99999.0    0.00 
 124   12:00   0.05   56.2    58   11.6   320    16.4   99999.0    0.00 
 124   12:10   0.12   55.1    61   10.4   317    16.7   99999.0    0.00 
 124   12:20   0.31   54.8    61   11.1   308    16.7   99999.0    0.00 
 124   12:30   0.71   56.5    58   14.4   330    19.6   99999.0    0.00 
 124   12:40   0.69   57.4    59   14.0   326    20.6   99999.0    0.00 
 124   12:50   0.79   57.4    60   14.4   324    21.4   99999.0    0.00 
 124   13:00   0.78   58.3    57   13.3   322    18.1   99999.0    0.00 
 124   13:10   0.76   58.6    55   13.4   320    19.9   99999.0    0.00 
 124   13:20   0.75   59.1    53   12.3   320    17.8   99999.0    0.00 
 124   13:30   0.75   60.1    52   10.8   316    17.1   99999.0    0.00 
 124   13:40   0.74   59.9    51   11.3   344    19.9   99999.0    0.00 
 124   13:50   0.75   61.0    49   10.2   323    15.3   99999.0    0.00 
 124   14:00   0.72   60.4    51   12.4   344    18.1   99999.0    0.00 
 124   14:10   0.74   59.7    51   12.9   351    19.2   99999.0    0.00 
 124   14:20   0.72   60.2    49   12.8   342    18.5   99999.0    0.00 
 124   14:30   0.69   60.5    49   12.2   344    18.1   99999.0    0.00 
 124   14:40   0.60   60.9    48   12.6   333    18.5   99999.0    0.00 
 124   14:50   0.41   60.2    50   12.2   359    17.1   99999.0    0.00 
 124   15:00   0.47   60.8    50   11.4     9    20.3   99999.0    0.00 
 124   15:10   0.21   60.0    52    8.2    34    12.8   99999.0    0.00 
 124   15:20   0.51   60.4    50    7.8    36    12.8   99999.0    0.00 
 124   15:30   0.32   61.4    46    9.6    54    16.4   99999.0    0.00 
 124   15:40   0.52   61.4    46    8.8    48    13.5   99999.0    0.00 
 124   15:50   0.26   60.7    47    9.0    48    15.6   99999.0    0.00 
 124   16:00   0.14   59.6    48    9.9    41    16.4   99999.0    0.00 
 124   16:10   0.03   58.2    50    9.2    29    14.9   99999.0    0.00 
 124   16:20   0.01   57.3    51   11.6   356    18.1   99999.0    0.00 

Return to Lazy 5 Park graphs page.


Western Regional Climate Center,wrcc@dri.edu